Latest Weather Observations for Croker Island Airport

IDD60801

Issued at 12:31 pm CST Tuesday 28 February 2017 (issued every 30 minutes, with the page automatically refreshed every 10 minutes)

About weather observations | Map of weather stations | Latest weather observations for NT | Other Formats
Station Details ID: 014308 Name: CROKER ISLAND AIRPORT Lat: -11.16 Lon: 132.48 Height: 9.2 m
Data from the previous 72 hours. | See also: Recent months at Croker Island Airport
Date/Time
CST
Temp
°C
App
Temp
°C
Dew
Point
°C
Rel
Hum
%
Delta-T
°C
Wind Press
QNH
hPa
Press
MSL
hPa
Rain since
9am
mm
Dir  Spd
km/h
Gust
km/h
Spd
kts
Gust
kts
28/12:30pm 28.8 35.4 28.8 100 0.0 E 13 20 7 11 1008.2 1008.1 0.0
28/12:00pm 29.1 35.9 29.1 100 0.0 E 13 20 7 11 1008.4 1008.3 0.0
28/11:30am 28.4 35.1 28.4 100 0.0 E 11 15 6 8 1008.7 1008.6 0.0
28/11:00am 27.9 34.6 27.9 100 0.0 ESE 9 15 5 8 1009.0 1008.9 0.0
28/10:30am 28.2 34.7 28.2 100 0.0 ESE 11 17 6 9 1009.1 1009.0 0.0
28/10:00am 27.5 33.5 27.5 100 0.0 ESE 11 17 6 9 1009.3 1009.2 0.0
28/09:30am 28.1 33.4 28.1 100 0.0 ESE 17 26 9 14 1009.3 1009.2 0.0
28/09:00am 28.6 35.1 28.6 100 0.0 ESE 13 17 7 9 1009.0 1008.9 21.4
28/08:30am 28.8 35.8 28.8 100 0.0 SE 11 19 6 10 1008.8 1008.7 21.4
28/08:00am 27.3 33.9 27.3 100 0.0 SE 7 9 4 5 1008.6 1008.5 21.4
28/07:30am 26.2 32.3 26.2 100 0.0 SE 6 7 3 4 1008.0 1007.9 21.4
28/07:00am 25.7 31.5 25.7 100 0.0 ESE 6 9 3 5 1007.8 1007.7 21.4
28/06:30am 25.7 31.5 25.7 100 0.0 SE 6 9 3 5 1007.5 1007.4 21.4
28/06:00am 25.5 30.9 25.5 100 0.0 SE 7 9 4 5 1007.3 1007.2 21.4
28/05:30am 25.8 32.8 25.8 100 0.0 CALM 0 0 0 0 1007.6 1007.5 21.4
28/05:00am 26.0 33.1 26.0 100 0.0 CALM 0 0 0 0 1007.5 1007.4 21.4
28/04:30am 26.3 32.8 26.3 100 0.0 E 4 6 2 3 1007.1 1007.0 21.4
28/04:00am 26.4 33.4 26.4 100 0.0 E 2 6 1 3 1007.1 1007.0 21.4
28/03:30am 26.2 32.7 26.2 100 0.0 E 4 6 2 3 1007.1 1007.0 21.4
28/03:00am 26.1 32.5 26.1 100 0.0 SE 4 6 2 3 1007.3 1007.2 21.4
28/02:30am 26.1 32.9 26.1 100 0.0 SSE 2 2 1 1 1007.6 1007.5 21.4
28/02:00am 26.0 32.3 26.0 100 0.0 SE 4 6 2 3 1007.5 1007.4 21.4
28/01:30am 26.0 32.3 26.0 100 0.0 ENE 4 6 2 3 1007.9 1007.8 21.4
28/01:00am 25.7 30.9 25.7 100 0.0 ESE 9 13 5 7 1008.6 1008.5 21.4
28/12:30am 26.0 31.4 26.0 100 0.0 SE 9 17 5 9 1008.9 1008.8 21.4
28/12:00am 26.1 31.2 26.1 100 0.0 SSE 11 15 6 8 1009.3 1009.2 21.4
 
Date/Time
CST
Temp
°C
App
Temp
°C
Dew
Point
°C
Rel
Hum
%
Delta-T
°C
Wind Press
QNH
hPa
Press
MSL
hPa
Rain since
9am
mm
Dir  Spd
km/h
Gust
km/h
Spd
kts
Gust
kts
27/11:30pm 26.4 32.1 26.4 100 0.0 SE 9 13 5 7 1009.6 1009.5 21.4
27/11:00pm 26.4 32.6 26.4 100 0.0 ESE 6 6 3 3 1009.3 1009.2 21.4
27/10:30pm 26.7 33.1 26.7 100 0.0 ESE 6 7 3 4 1009.4 1009.3 21.4
27/10:00pm 26.4 32.4 26.4 100 0.0 SSE 7 9 4 5 1009.1 1009.0 21.4
27/09:30pm 26.6 32.8 26.6 100 0.0 S 7 11 4 6 1008.7 1008.6 21.4
27/09:00pm 26.3 33.2 26.3 100 0.0 SSE 2 6 1 3 1008.1 1008.0 21.2
27/08:30pm 26.6 34.1 26.6 100 0.0 CALM 0 2 0 1 1008.2 1008.1 21.2
27/08:00pm 26.8 33.3 26.8 100 0.0 SW 6 11 3 6 1008.0 1007.9 21.2
27/07:30pm 26.2 33.4 26.2 100 0.0 CALM 0 2 0 1 1007.8 1007.7 21.2
27/07:00pm 25.9 31.6 25.9 100 0.0 NW 7 9 4 5 1007.3 1007.2 21.2
27/06:30pm 25.7 30.9 25.7 100 0.0 NNW 9 17 5 9 1007.1 1007.0 21.2
27/06:00pm 24.6 27.6 24.6 100 0.0 NNW 17 24 9 13 1006.9 1006.8 21.2
27/05:30pm 26.9 32.2 26.4 97 0.4 SE 11 28 6 15 1006.7 1006.6 1.6
27/05:00pm 31.6 38.7 27.9 81 2.7 W 7 13 4 7 1006.1 1006.0 0.2
27/04:30pm 31.6 38.7 28.4 83 2.4 W 9 13 5 7 1005.8 1005.7 0.2
27/04:00pm 32.1 40.1 27.8 78 3.1 N 2 7 1 4 1005.8 1005.7 0.2
27/03:30pm 31.6 38.9 27.9 81 2.7 NNE 6 9 3 5 1006.1 1006.0 0.2
27/03:00pm 31.2 38.4 28.6 86 1.9 ENE 9 13 5 7 1006.3 1006.2 0.2
27/02:30pm 30.7 38.1 28.9 90 1.3 ENE 9 13 5 7 1006.7 1006.6 0.2
27/02:00pm 30.4 38.3 29.5 95 0.7 E 9 13 5 7 1007.3 1007.2 0.2
27/01:30pm 30.5 38.5 29.6 95 0.7 E 9 13 5 7 1007.6 1007.5 0.2
27/01:00pm 32.1 40.9 30.6 92 1.1 N 9 17 5 9 1007.8 1007.7 0.2
27/12:30pm 32.1 39.8 28.8 83 2.4 ENE 7 13 4 7 1008.3 1008.2 0.2
27/12:00pm 32.0 40.9 30.7 93 1.0 E 9 17 5 9 1008.4 1008.3 0.2
27/11:30am 31.6 41.4 31.4 99 0.2 ENE 7 13 4 7 1009.1 1009.0 0.2
27/11:00am 31.1 41.3 31.1 100 0.0 E 4 7 2 4 1009.4 1009.3 0.2
27/10:30am 30.5 39.8 30.5 100 0.0 E 6 9 3 5 1009.4 1009.3 0.2
27/10:00am 29.8 38.5 29.8 100 0.0 ESE 6 9 3 5 1009.7 1009.6 0.2
27/09:30am 28.9 36.3 28.9 100 0.0 ESE 9 13 5 7 1009.6 1009.5 0.0
27/09:00am 28.4 35.5 28.4 100 0.0 ESE 9 13 5 7 1009.5 1009.4 40.6
27/08:30am 27.7 35.2 27.7 100 0.0 SE 4 6 2 3 1009.2 1009.1 40.6
27/08:00am 26.7 33.1 26.7 100 0.0 SE 6 7 3 4 1008.9 1008.8 40.6
27/07:30am 26.6 32.8 26.6 100 0.0 SE 7 9 4 5 1008.3 1008.2 40.6
27/07:00am 26.4 32.1 26.4 100 0.0 SE 9 13 5 7 1008.0 1007.9 40.6
27/06:30am 26.6 32.8 26.6 100 0.0 ESE 7 9 4 5 1007.7 1007.6 40.6
27/06:00am 26.7 33.1 26.7 100 0.0 ESE 6 6 3 3 1007.5 1007.4 40.6
27/05:30am 27.0 33.6 27.0 100 0.0 S 6 6 3 3 1007.2 1007.1 40.6
27/05:00am 27.5 34.5 27.5 100 0.0 SW 6 7 3 4 1006.8 1006.7 40.6
27/04:30am 27.4 34.3 27.4 100 0.0 WSW 6 9 3 5 1007.0 1006.9 40.6
27/04:00am 27.1 34.6 27.1 100 0.0 S 2 6 1 3 1007.3 1007.2 40.6
27/03:30am 27.2 34.3 27.2 100 0.0 S 4 6 2 3 1007.4 1007.3 40.6
27/03:00am 27.9 34.6 27.9 100 0.0 SSW 9 15 5 8 1007.7 1007.6 40.6
27/02:30am 27.9 34.2 27.9 100 0.0 SSW 11 15 6 8 1007.9 1007.8 40.6
27/02:00am 27.8 34.4 27.8 100 0.0 SSW 9 13 5 7 1008.4 1008.3 40.6
27/01:30am 27.7 34.8 27.7 100 0.0 SSW 6 9 3 5 1008.7 1008.6 40.6
27/01:00am 27.7 34.3 27.7 100 0.0 SSW 9 13 5 7 1008.8 1008.7 40.6
27/12:30am 27.7 34.6 27.7 100 0.0 SSW 7 11 4 6 1008.9 1008.8 40.6
27/12:00am 27.7 34.3 27.7 100 0.0 SSW 9 13 5 7 1008.9 1008.8 40.6
 
Date/Time
CST
Temp
°C
App
Temp
°C
Dew
Point
°C
Rel
Hum
%
Delta-T
°C
Wind Press
QNH
hPa
Press
MSL
hPa
Rain since
9am
mm
Dir  Spd
km/h
Gust
km/h
Spd
kts
Gust
kts
26/11:30pm 27.7 34.6 27.7 100 0.0 SW 7 9 4 5 1009.1 1009.0 40.6
26/11:00pm 26.5 33.5 26.5 100 0.0 WNW 2 6 1 3 1009.1 1009.0 40.6
26/10:30pm 26.7 34.3 26.7 100 0.0 CALM 0 0 0 0 1009.2 1009.1 40.6
26/10:00pm 26.6 34.1 26.6 100 0.0 CALM 0 0 0 0 1009.1 1009.0 40.6
26/09:30pm 26.7 34.3 26.7 100 0.0 CALM 0 0 0 0 1008.5 1008.4 40.6
26/09:00pm 26.6 33.7 26.6 100 0.0 SSE 2 4 1 2 1008.8 1008.7 40.6
26/08:30pm 26.9 34.2 26.9 100 0.0 SSW 2 4 1 2 1008.3 1008.2 40.6
26/08:00pm 26.3 33.6 26.3 100 0.0 CALM 0 4 0 2 1007.6 1007.5 40.6
26/07:30pm 26.6 34.1 26.6 100 0.0 CALM 0 2 0 1 1007.2 1007.1 40.6
26/07:00pm 26.3 32.5 26.3 100 0.0 NW 6 9 3 5 1007.1 1007.0 40.6
26/06:30pm 26.6 32.8 26.6 100 0.0 WNW 7 13 4 7 1006.9 1006.8 40.6
26/06:00pm 26.1 31.9 26.1 100 0.0 WNW 7 11 4 6 1006.8 1006.7 40.6
26/05:30pm 25.7 31.3 25.7 100 0.0 WSW 7 11 4 6 1006.3 1006.2 40.6
26/05:00pm 25.2 30.1 25.2 100 0.0 WNW 9 15 5 8 1005.8 1005.7 40.4
26/04:30pm 24.3 28.6 24.3 100 0.0 NNE 9 15 5 8 1006.0 1005.9 38.6
26/04:00pm 24.1 24.3 24.1 100 0.0 NE 30 43 16 23 1006.7 1006.6 21.0
26/03:51pm 27.5 30.0 25.9 91 1.1 NNE 24 41 13 22 1005.9 1005.8 1.2
26/03:30pm 32.8 39.6 27.3 73 4.0 W 6 6 3 3 1005.7 1005.6 0.0
26/03:00pm 33.6 40.7 27.6 71 4.4 SW 6 7 3 4 1005.5 1005.4 0.0
26/02:30pm 33.8 41.2 28.3 73 4.1 SSW 7 11 4 6 1005.8 1005.7 0.0
26/02:00pm 33.7 41.0 28.2 73 4.0 SW 7 9 4 5 1006.2 1006.1 0.0
26/01:30pm 33.7 41.3 28.6 74 3.8 WSW 7 11 4 6 1006.4 1006.3 0.0
26/01:00pm 32.7 39.0 27.4 73 3.9 WSW 9 11 5 6 1006.7 1006.6 0.0
26/12:30pm 32.9 40.4 29.0 80 2.9 SW 9 13 5 7 1007.1 1007.0 0.0
26/12:00pm 32.9 40.3 29.4 82 2.6 SW 11 15 6 8 1007.4 1007.3 0.0
26/11:30am 32.1 39.6 29.5 86 1.9 SSW 11 15 6 8 1007.8 1007.7 0.0
26/11:00am 31.9 39.2 29.7 88 1.6 SW 13 20 7 11 1008.1 1008.0 0.0
26/10:30am 31.2 37.9 29.4 90 1.3 SSW 15 19 8 10 1008.3 1008.2 0.0
26/10:00am 30.8 39.6 30.6 99 0.2 SW 9 15 5 8 1008.6 1008.5 0.0
26/09:30am 30.4 39.0 30.4 100 0.0 SSW 9 15 5 8 1008.6 1008.5 0.0
26/09:00am 29.7 38.1 29.7 100 0.0 SSW 7 9 4 5 1008.8 1008.7 0.8
26/08:30am 29.1 37.1 29.1 100 0.0 SSW 7 9 4 5 1008.6 1008.5 0.8
26/08:00am 28.1 35.5 28.1 100 0.0 SSW 6 11 3 6 1008.7 1008.6 0.8
26/07:30am 27.1 33.6 27.1 100 0.0 SSW 7 9 4 5 1008.5 1008.4 0.8
26/07:00am 26.4 32.1 26.4 100 0.0 S 9 13 5 7 1008.1 1008.0 0.8
26/06:30am 26.3 31.9 26.3 100 0.0 S 9 13 5 7 1008.0 1007.9 0.8
26/06:00am 26.4 30.9 26.4 100 0.0 SSW 15 20 8 11 1007.7 1007.6 0.8
26/05:30am 26.6 32.0 26.6 100 0.0 SSW 11 17 6 9 1007.7 1007.6 0.8
26/05:00am 27.2 32.3 27.2 100 0.0 SSW 15 22 8 12 1007.7 1007.6 0.8
26/04:30am 27.4 33.4 27.4 100 0.0 SSW 11 17 6 9 1007.8 1007.7 0.8
26/04:00am 27.5 33.9 27.5 100 0.0 S 9 13 5 7 1007.8 1007.7 0.8
26/03:30am 27.4 33.4 27.4 100 0.0 SSW 11 15 6 8 1008.0 1007.9 0.8
26/03:00am 27.8 34.0 27.8 100 0.0 SSW 11 17 6 9 1008.2 1008.1 0.8
26/02:30am 27.9 34.6 27.9 100 0.0 SW 9 13 5 7 1008.4 1008.3 0.8
26/02:00am 27.9 34.2 27.9 100 0.0 SSW 11 15 6 8 1008.5 1008.4 0.8
26/01:30am 27.6 34.1 27.6 100 0.0 SSW 9 13 5 7 1008.8 1008.7 0.8
26/01:00am 28.1 35.3 28.1 100 0.0 SW 7 11 4 6 1009.1 1009.0 0.8
26/12:30am 28.2 35.1 28.2 100 0.0 SW 9 13 5 7 1009.4 1009.3 0.8
26/12:00am 28.3 35.7 28.3 100 0.0 WSW 7 11 4 6 1009.7 1009.6 0.8
 
Date/Time
CST
Temp
°C
App
Temp
°C
Dew
Point
°C
Rel
Hum
%
Delta-T
°C
Wind Press
QNH
hPa
Press
MSL
hPa
Rain since
9am
mm
Dir  Spd
km/h
Gust
km/h
Spd
kts
Gust
kts
25/11:30pm 28.3 35.7 28.3 100 0.0 W 7 11 4 6 1009.7 1009.6 0.8
25/11:00pm 28.3 35.3 28.3 100 0.0 SW 9 13 5 7 1009.8 1009.7 0.8
25/10:30pm 28.6 35.4 28.6 100 0.0 WSW 11 15 6 8 1009.6 1009.5 0.8
25/10:00pm 28.6 35.8 28.6 100 0.0 W 9 15 5 8 1009.1 1009.0 0.8
25/09:30pm 28.4 35.1 28.4 100 0.0 WNW 11 17 6 9 1008.7 1008.6 0.8
25/09:00pm 28.4 35.1 28.4 100 0.0 WNW 11 20 6 11 1008.3 1008.2 0.8
25/08:30pm 28.0 35.3 28.0 100 0.0 NW 6 9 3 5 1008.5 1008.4 0.8
25/08:00pm 28.1 35.5 28.1 100 0.0 NW 6 9 3 5 1008.8 1008.7 0.8
25/07:30pm 28.3 35.9 28.3 100 0.0 NW 6 9 3 5 1008.9 1008.8 0.8
25/07:00pm 28.9 36.7 28.9 100 0.0 NW 7 11 4 6 1008.6 1008.5 0.8
25/06:30pm 29.3 37.2 29.0 98 0.2 WNW 7 11 4 6 1008.1 1008.0 0.8
25/06:00pm 29.8 37.4 29.1 96 0.5 NW 9 15 5 8 1007.6 1007.5 0.8
25/05:30pm 30.6 37.8 29.1 92 1.1 NW 11 17 6 9 1007.4 1007.3 0.8
25/05:00pm 31.3 38.9 29.1 88 1.6 WNW 9 15 5 8 1007.4 1007.3 0.8
25/04:30pm 30.4 37.9 29.5 95 0.7 WNW 11 17 6 9 1007.9 1007.8 0.8
25/04:00pm 31.4 40.3 30.7 96 0.5 WNW 9 17 5 9 1008.1 1008.0 0.8
25/03:30pm 30.9 39.4 30.7 99 0.2 NW 11 17 6 9 1008.0 1007.9 0.8
25/03:00pm 29.2 37.8 29.2 100 0.0 W 4 11 2 6 1008.4 1008.3 0.8
25/02:30pm 30.6 37.1 27.6 84 2.2 NW 9 13 5 7 1008.7 1008.6 0.0
25/02:00pm 31.2 38.2 27.8 82 2.5 W 7 11 4 6 1009.0 1008.9 0.0
25/01:30pm 32.5 39.9 28.4 79 3.0 SW 7 13 4 7 1009.1 1009.0 0.0
25/01:00pm 32.9 40.5 28.3 77 3.4 SSW 6 9 3 5 1009.6 1009.5 0.0

Other Formats:

Comma delimited format used in spreadsheet applications
http://www.bom.gov.au/fwo/IDD60801/IDD60801.94108.axf

JavaScript Object Notation format (JSON) in row-major order
http://www.bom.gov.au/fwo/IDD60801/IDD60801.94108.json